Flight Track Log - Related Links

Times and Time Zones

All times are in EDT time to prevent confusion due to time zone crossing. See the N53361 flight status page for this flight to view local times or setup timezone preferences in your user account.

Time Position Orientation Groundspeed Altitude Reporting Facility
EDT Latitude Longitude Course Direction KTS MPH feet Rate Location/Type
Fri 03:50:52 PM 35.1111 -83.9981 202° Southwest 112 129 4,900  Level Atlanta Center
Fri 03:51:52 PM 35.0881 -84.0158 212° Southwest 112 129 5,300 450 Climbing Atlanta Center
Fri 03:52:52 PM 35.0672 -84.0361 219° Southwest 106 122 5,800 450 Climbing Atlanta Center
Fri 03:53:52 PM 35.0444 -84.0514 209° Southwest 106 122 6,200 400 Climbing Atlanta Center
Fri 03:54:00 PM 35.0464 -83.9422 206° Southwest  Level FlightAware Approximate
Fri 03:54:52 PM 35.0236 -84.0717 219° Southwest 106 122 6,600  Level Atlanta Center
Fri 03:55:00 PM 35.0227 -83.9553 202° Southwest  Level FlightAware Approximate
Fri 03:55:52 PM 35.0025 -84.0869 211° Southwest 106 122 7,000  Level Atlanta Center
Fri 03:56:00 PM 34.9985 -83.9674 202° Southwest  Level FlightAware Approximate
Fri 03:56:52 PM 34.9775 -84.0969 198° South 101 116 7,400  Level Atlanta Center
Fri 03:57:52 PM 34.9525 -84.1097 203° Southwest 96 110 7,700 350 Climbing Atlanta Center
Fri 03:58:52 PM 34.9294 -84.1197 200° South 91 105 8,100 350 Climbing Atlanta Center
Fri 03:59:52 PM 34.9067 -84.1300 200° South 91 105 8,400 300 Climbing Atlanta Center
Fri 04:00:52 PM 34.8836 -84.1425 204° Southwest 91 105 8,700 250 Climbing Atlanta Center
Fri 04:01:52 PM 34.8606 -84.1553 204° Southwest 91 105 8,900 100 Climbing Atlanta Center
Fri 04:02:52 PM 34.8378 -84.1728 212° Southwest 96 110 8,900  Level Atlanta Center
Fri 04:03:52 PM 34.8128 -84.1906 210° Southwest 101 116 8,900  Level Atlanta Center
Fri 04:04:52 PM 34.7875 -84.2031 202° Southwest 101 116 8,900  Level Atlanta Center
Fri 04:05:52 PM 34.7583 -84.2158 200° South 101 116 8,900 50 Level Atlanta Center
Fri 04:06:52 PM 34.7333 -84.2283 202° Southwest 101 116 9,000  Climbing Atlanta Center
Fri 04:07:52 PM 34.7042 -84.2383 196° South 101 116 8,900  Descending Atlanta Center
Fri 04:08:52 PM 34.6769 -84.2508 201° Southwest 110 127 9,000  Climbing Atlanta Center
Fri 04:09:52 PM 34.6519 -84.2661 207° Southwest 110 127 8,900 -50 Descending Atlanta Center
Fri 04:10:52 PM 34.6247 -84.2811 204° Southwest 110 127 8,900 -100 Level Atlanta Center
Fri 04:11:52 PM 34.5997 -84.2961 206° Southwest 110 127 8,700 -350 Descending Atlanta Center
Fri 04:12:52 PM 34.5767 -84.3164 216° Southwest 110 127 8,200 -400 Descending Atlanta Center
Fri 04:13:52 PM 34.5475 -84.3214 188° South 105 121 7,900 -150 Descending Atlanta Center
Fri 04:14:52 PM 34.5181 -84.3311 195° South 105 121 7,900  Level Atlanta Center
Fri 04:15:52 PM 34.4931 -84.3436 202° Southwest 105 121 7,900  Level Atlanta Center
Fri 04:16:52 PM 34.4722 -84.3614 215° Southwest 105 121 7,900  Level Atlanta Center
Fri 04:17:52 PM 34.4450 -84.3764 204° Southwest 105 121 7,900 50 Level Atlanta Center
Fri 04:18:52 PM 34.4200 -84.3864 198° South 105 121 8,000 50 Climbing Atlanta Center
Fri 04:19:52 PM 34.3928 -84.4014 204° Southwest 111 128 8,000 -50 Level Atlanta Center
Fri 04:20:52 PM 34.3678 -84.4139 202° Southwest 111 128 7,900  Descending Atlanta Center
Fri 04:21:52 PM 34.3383 -84.4286 202° Southwest 111 128 8,000  Climbing Atlanta Center
Fri 04:22:52 PM 34.3133 -84.4436 206° Southwest 106 122 7,900 -50 Descending Atlanta Center
Fri 04:23:52 PM 34.2944 -84.4661 225° Southwest 106 122 7,900 -250 Level Atlanta Center
Fri 04:24:52 PM 34.2817 -84.4989 245° Southwest 106 122 7,400 -500 Descending Atlanta Center
Fri 04:25:52 PM 34.2650 -84.5289 236° Southwest 116 133 6,900 -500 Descending Atlanta Center
Fri 04:26:52 PM 34.2461 -84.5614 235° Southwest 121 139 6,400 -450 Descending Atlanta Center
Fri 04:27:52 PM 34.2292 -84.5914 236° Southwest 121 139 6,000 -392 Descending Atlanta Center
Fri 04:29:25 PM 34.2000 -84.6333 230° Southwest 115 132 5,400 -392 Descending Atlanta TRACON
Fri 04:30:25 PM 34.1833 -84.6667 239° Southwest 116 133 5,000 -238 Descending Atlanta TRACON
Fri 04:31:31 PM 34.1667 -84.7000 239° Southwest 113 130 4,900 -48 Descending Atlanta TRACON
Fri 04:32:31 PM 34.1500 -84.7333 239° Southwest 110 127 4,900 -263 Level Atlanta TRACON
Fri 04:33:25 PM 34.1333 -84.7667 239° Southwest 116 133 4,400 -526 Descending Atlanta TRACON
Fri 04:34:25 PM 34.1167 -84.8000 239° Southwest 116 133 3,900 -550 Descending Atlanta TRACON
Fri 04:35:25 PM 34.1000 -84.8167 220° Southwest 117 135 3,300 -200 Descending Atlanta TRACON
Fri 04:39:25 PM 34.0000 -84.8333 188° South 93 107 2,900 -140 Descending Atlanta TRACON
Fri 04:40:25 PM 34.0000 -84.8000 90° East 87 100 2,600 -150 Descending Atlanta TRACON
Fri 04:41:25 PM 34.0167 -84.7667 59° Northeast 85 98 2,600  Level Atlanta TRACON
Fri 04:43:25 PM 34.0167 -84.7167 90° East 89 102 2,600  Level Atlanta TRACON
Fri 04:44:31 PM 34.0167 -84.6833 90° East 69 79 2,600 -238 Level Atlanta TRACON
Fri 04:45:31 PM 34.0167 -84.6667 90° East 75 86 2,100 -500 Descending Atlanta TRACON

Login

Don't have an account? Register now (free) for customized features, flight alerts, and more!